sensor_id;sensor_type;location;lat;lon;timestamp;P1;durP1;ratioP1;P2;durP2;ratioP2
9481;SDS011;4779;48.062;11.672;2023-08-20T00:00:00;5.05;;;4.22;;
9481;SDS011;4779;48.062;11.672;2023-08-20T00:02:29;4.93;;;3.70;;
9481;SDS011;4779;48.062;11.672;2023-08-20T00:04:58;5.70;;;3.90;;
9481;SDS011;4779;48.062;11.672;2023-08-20T00:07:29;4.07;;;3.67;;
9481;SDS011;4779;48.062;11.672;2023-08-20T00:09:57;4.32;;;3.70;;
9481;SDS011;4779;48.062;11.672;2023-08-20T00:12:24;7.07;;;4.07;;
9481;SDS011;4779;48.062;11.672;2023-08-20T00:14:52;4.40;;;3.80;;
9481;SDS011;4779;48.062;11.672;2023-08-20T00:17:21;5.07;;;3.80;;
9481;SDS011;4779;48.062;11.672;2023-08-20T00:19:52;4.35;;;3.78;;
9481;SDS011;4779;48.062;11.672;2023-08-20T00:22:21;6.28;;;3.97;;
9481;SDS011;4779;48.062;11.672;2023-08-20T00:24:50;4.90;;;3.88;;
9481;SDS011;4779;48.062;11.672;2023-08-20T00:27:19;4.68;;;3.95;;
9481;SDS011;4779;48.062;11.672;2023-08-20T00:29:46;4.40;;;3.72;;
9481;SDS011;4779;48.062;11.672;2023-08-20T00:32:14;5.07;;;4.10;;
9481;SDS011;4779;48.062;11.672;2023-08-20T00:34:41;5.95;;;4.15;;
9481;SDS011;4779;48.062;11.672;2023-08-20T00:37:08;6.63;;;3.90;;
9481;SDS011;4779;48.062;11.672;2023-08-20T00:39:35;4.60;;;3.95;;
9481;SDS011;4779;48.062;11.672;2023-08-20T00:42:04;4.90;;;4.40;;
9481;SDS011;4779;48.062;11.672;2023-08-20T00:44:32;6.25;;;4.10;;
9481;SDS011;4779;48.062;11.672;2023-08-20T00:46:59;4.65;;;4.25;;
9481;SDS011;4779;48.062;11.672;2023-08-20T00:49:31;5.47;;;4.20;;
9481;SDS011;4779;48.062;11.672;2023-08-20T00:51:58;4.22;;;3.67;;
9481;SDS011;4779;48.062;11.672;2023-08-20T00:54:26;6.65;;;4.20;;
9481;SDS011;4779;48.062;11.672;2023-08-20T00:56:54;7.15;;;3.97;;
9481;SDS011;4779;48.062;11.672;2023-08-20T00:59:22;4.57;;;3.75;;
9481;SDS011;4779;48.062;11.672;2023-08-20T01:01:49;5.63;;;4.43;;
9481;SDS011;4779;48.062;11.672;2023-08-20T01:04:17;4.40;;;3.65;;
9481;SDS011;4779;48.062;11.672;2023-08-20T01:07:03;4.40;;;3.95;;
9481;SDS011;4779;48.062;11.672;2023-08-20T01:09:39;4.05;;;3.65;;
9481;SDS011;4779;48.062;11.672;2023-08-20T01:12:14;4.97;;;4.03;;
9481;SDS011;4779;48.062;11.672;2023-08-20T01:14:43;4.60;;;3.97;;
9481;SDS011;4779;48.062;11.672;2023-08-20T01:17:10;4.47;;;3.90;;
9481;SDS011;4779;48.062;11.672;2023-08-20T01:19:37;4.72;;;3.58;;
9481;SDS011;4779;48.062;11.672;2023-08-20T01:22:19;6.65;;;4.18;;
9481;SDS011;4779;48.062;11.672;2023-08-20T01:25:04;5.88;;;4.00;;
9481;SDS011;4779;48.062;11.672;2023-08-20T01:27:47;6.40;;;3.33;;
9481;SDS011;4779;48.062;11.672;2023-08-20T01:30:26;5.25;;;3.65;;
9481;SDS011;4779;48.062;11.672;2023-08-20T01:32:53;4.20;;;3.80;;
9481;SDS011;4779;48.062;11.672;2023-08-20T01:35:22;4.28;;;3.88;;
9481;SDS011;4779;48.062;11.672;2023-08-20T01:37:51;5.90;;;4.20;;
9481;SDS011;4779;48.062;11.672;2023-08-20T01:40:18;4.47;;;3.88;;
9481;SDS011;4779;48.062;11.672;2023-08-20T01:42:45;6.53;;;3.80;;
9481;SDS011;4779;48.062;11.672;2023-08-20T01:45:12;4.32;;;3.92;;
9481;SDS011;4779;48.062;11.672;2023-08-20T01:47:41;7.22;;;4.22;;
9481;SDS011;4779;48.062;11.672;2023-08-20T01:50:08;5.15;;;3.90;;
9481;SDS011;4779;48.062;11.672;2023-08-20T01:52:36;4.70;;;3.88;;
9481;SDS011;4779;48.062;11.672;2023-08-20T01:55:03;5.10;;;3.58;;
9481;SDS011;4779;48.062;11.672;2023-08-20T01:57:31;5.10;;;3.72;;
9481;SDS011;4779;48.062;11.672;2023-08-20T01:59:58;7.03;;;4.20;;
9481;SDS011;4779;48.062;11.672;2023-08-20T02:02:25;5.40;;;4.07;;
9481;SDS011;4779;48.062;11.672;2023-08-20T02:04:53;4.38;;;3.60;;
9481;SDS011;4779;48.062;11.672;2023-08-20T02:07:21;6.00;;;4.35;;
9481;SDS011;4779;48.062;11.672;2023-08-20T02:09:48;5.65;;;3.90;;
9481;SDS011;4779;48.062;11.672;2023-08-20T02:12:15;4.15;;;3.75;;
9481;SDS011;4779;48.062;11.672;2023-08-20T02:14:42;4.75;;;3.88;;
9481;SDS011;4779;48.062;11.672;2023-08-20T02:17:09;5.60;;;3.80;;
9481;SDS011;4779;48.062;11.672;2023-08-20T02:19:37;5.10;;;3.70;;
9481;SDS011;4779;48.062;11.672;2023-08-20T02:22:06;4.60;;;4.00;;
9481;SDS011;4779;48.062;11.672;2023-08-20T02:24:32;4.20;;;3.67;;
9481;SDS011;4779;48.062;11.672;2023-08-20T02:26:59;6.72;;;3.85;;
9481;SDS011;4779;48.062;11.672;2023-08-20T02:29:26;4.30;;;3.67;;
9481;SDS011;4779;48.062;11.672;2023-08-20T02:31:53;5.43;;;4.38;;
9481;SDS011;4779;48.062;11.672;2023-08-20T02:34:20;4.15;;;3.80;;
9481;SDS011;4779;48.062;11.672;2023-08-20T02:36:48;4.15;;;3.75;;
9481;SDS011;4779;48.062;11.672;2023-08-20T02:39:17;4.82;;;3.72;;
9481;SDS011;4779;48.062;11.672;2023-08-20T02:41:45;5.00;;;3.60;;
9481;SDS011;4779;48.062;11.672;2023-08-20T02:44:12;5.80;;;3.85;;
9481;SDS011;4779;48.062;11.672;2023-08-20T02:46:39;3.78;;;3.38;;
9481;SDS011;4779;48.062;11.672;2023-08-20T02:49:06;5.13;;;3.92;;
9481;SDS011;4779;48.062;11.672;2023-08-20T02:51:33;6.07;;;3.95;;
9481;SDS011;4779;48.062;11.672;2023-08-20T02:54:00;6.72;;;3.78;;
9481;SDS011;4779;48.062;11.672;2023-08-20T02:56:29;5.22;;;3.88;;
9481;SDS011;4779;48.062;11.672;2023-08-20T02:58:56;4.65;;;4.10;;
9481;SDS011;4779;48.062;11.672;2023-08-20T03:01:23;5.13;;;4.03;;
9481;SDS011;4779;48.062;11.672;2023-08-20T03:03:51;5.65;;;4.05;;
9481;SDS011;4779;48.062;11.672;2023-08-20T03:06:18;4.15;;;3.75;;
9481;SDS011;4779;48.062;11.672;2023-08-20T03:08:45;4.15;;;3.75;;
9481;SDS011;4779;48.062;11.672;2023-08-20T03:11:12;4.50;;;3.70;;
9481;SDS011;4779;48.062;11.672;2023-08-20T03:13:40;5.53;;;3.50;;
9481;SDS011;4779;48.062;11.672;2023-08-20T03:16:07;5.97;;;3.92;;
9481;SDS011;4779;48.062;11.672;2023-08-20T03:18:34;4.90;;;3.70;;
9481;SDS011;4779;48.062;11.672;2023-08-20T03:21:01;5.15;;;3.58;;
9481;SDS011;4779;48.062;11.672;2023-08-20T03:23:29;4.03;;;3.70;;
9481;SDS011;4779;48.062;11.672;2023-08-20T03:25:57;4.38;;;3.70;;
9481;SDS011;4779;48.062;11.672;2023-08-20T03:28:24;4.78;;;4.07;;
9481;SDS011;4779;48.062;11.672;2023-08-20T03:30:53;5.88;;;4.00;;
9481;SDS011;4779;48.062;11.672;2023-08-20T03:33:20;6.05;;;3.90;;
9481;SDS011;4779;48.062;11.672;2023-08-20T03:35:47;6.47;;;4.18;;
9481;SDS011;4779;48.062;11.672;2023-08-20T03:38:14;6.00;;;3.80;;
9481;SDS011;4779;48.062;11.672;2023-08-20T03:40:41;4.93;;;3.67;;
9481;SDS011;4779;48.062;11.672;2023-08-20T03:43:08;4.50;;;3.47;;
9481;SDS011;4779;48.062;11.672;2023-08-20T03:45:35;4.35;;;3.60;;
9481;SDS011;4779;48.062;11.672;2023-08-20T03:48:03;3.92;;;3.60;;
9481;SDS011;4779;48.062;11.672;2023-08-20T03:50:31;5.85;;;3.80;;
9481;SDS011;4779;48.062;11.672;2023-08-20T03:52:58;4.13;;;3.83;;
9481;SDS011;4779;48.062;11.672;2023-08-20T03:55:25;4.55;;;4.15;;
9481;SDS011;4779;48.062;11.672;2023-08-20T03:57:52;4.10;;;3.60;;
9481;SDS011;4779;48.062;11.672;2023-08-20T04:00:19;4.95;;;3.72;;
9481;SDS011;4779;48.062;11.672;2023-08-20T04:02:46;4.30;;;3.80;;
9481;SDS011;4779;48.062;11.672;2023-08-20T04:05:14;4.50;;;3.83;;
9481;SDS011;4779;48.062;11.672;2023-08-20T04:07:41;5.20;;;3.80;;
9481;SDS011;4779;48.062;11.672;2023-08-20T04:10:08;4.00;;;3.60;;
9481;SDS011;4779;48.062;11.672;2023-08-20T04:12:35;6.38;;;4.60;;
9481;SDS011;4779;48.062;11.672;2023-08-20T04:15:03;5.43;;;3.70;;
9481;SDS011;4779;48.062;11.672;2023-08-20T04:17:30;5.28;;;3.83;;
9481;SDS011;4779;48.062;11.672;2023-08-20T04:19:57;4.05;;;3.60;;
9481;SDS011;4779;48.062;11.672;2023-08-20T04:22:26;5.10;;;3.85;;
9481;SDS011;4779;48.062;11.672;2023-08-20T04:24:55;5.45;;;4.35;;
9481;SDS011;4779;48.062;11.672;2023-08-20T04:27:22;6.65;;;4.05;;
9481;SDS011;4779;48.062;11.672;2023-08-20T04:29:49;5.10;;;3.83;;
9481;SDS011;4779;48.062;11.672;2023-08-20T04:32:16;5.57;;;3.78;;
9481;SDS011;4779;48.062;11.672;2023-08-20T04:34:43;4.22;;;3.80;;
9481;SDS011;4779;48.062;11.672;2023-08-20T04:37:11;4.20;;;3.70;;
9481;SDS011;4779;48.062;11.672;2023-08-20T04:39:39;5.07;;;4.05;;
9481;SDS011;4779;48.062;11.672;2023-08-20T04:42:06;4.63;;;3.80;;
9481;SDS011;4779;48.062;11.672;2023-08-20T04:44:33;4.55;;;3.92;;
9481;SDS011;4779;48.062;11.672;2023-08-20T04:47:00;5.85;;;4.38;;
9481;SDS011;4779;48.062;11.672;2023-08-20T04:49:27;5.05;;;3.88;;
9481;SDS011;4779;48.062;11.672;2023-08-20T04:51:55;6.13;;;4.55;;
9481;SDS011;4779;48.062;11.672;2023-08-20T04:54:22;6.65;;;4.57;;
9481;SDS011;4779;48.062;11.672;2023-08-20T04:56:50;6.70;;;4.32;;
9481;SDS011;4779;48.062;11.672;2023-08-20T04:59:17;4.30;;;3.90;;
9481;SDS011;4779;48.062;11.672;2023-08-20T05:01:45;4.88;;;3.83;;
9481;SDS011;4779;48.062;11.672;2023-08-20T05:04:12;5.72;;;3.67;;
9481;SDS011;4779;48.062;11.672;2023-08-20T05:06:39;4.57;;;3.90;;
9481;SDS011;4779;48.062;11.672;2023-08-20T05:09:06;3.88;;;3.50;;
9481;SDS011;4779;48.062;11.672;2023-08-20T05:11:33;4.88;;;4.30;;
9481;SDS011;4779;48.062;11.672;2023-08-20T05:14:02;4.57;;;3.75;;
9481;SDS011;4779;48.062;11.672;2023-08-20T05:16:30;5.82;;;3.97;;
9481;SDS011;4779;48.062;11.672;2023-08-20T05:18:59;4.60;;;4.00;;
9481;SDS011;4779;48.062;11.672;2023-08-20T05:21:26;4.75;;;4.00;;
9481;SDS011;4779;48.062;11.672;2023-08-20T05:23:53;6.38;;;4.00;;
9481;SDS011;4779;48.062;11.672;2023-08-20T05:26:21;5.70;;;3.95;;
9481;SDS011;4779;48.062;11.672;2023-08-20T05:28:48;4.13;;;3.75;;
9481;SDS011;4779;48.062;11.672;2023-08-20T05:31:17;5.35;;;4.30;;
9481;SDS011;4779;48.062;11.672;2023-08-20T05:33:44;6.30;;;4.25;;
9481;SDS011;4779;48.062;11.672;2023-08-20T05:36:11;4.25;;;3.60;;
9481;SDS011;4779;48.062;11.672;2023-08-20T05:38:41;4.22;;;3.83;;
9481;SDS011;4779;48.062;11.672;2023-08-20T05:41:08;5.93;;;4.50;;
9481;SDS011;4779;48.062;11.672;2023-08-20T05:43:35;6.65;;;4.30;;
9481;SDS011;4779;48.062;11.672;2023-08-20T05:46:02;6.03;;;4.45;;
9481;SDS011;4779;48.062;11.672;2023-08-20T05:48:31;7.60;;;4.00;;
9481;SDS011;4779;48.062;11.672;2023-08-20T05:50:58;5.20;;;4.00;;
9481;SDS011;4779;48.062;11.672;2023-08-20T05:53:25;5.90;;;3.90;;
9481;SDS011;4779;48.062;11.672;2023-08-20T05:55:52;7.00;;;3.92;;
9481;SDS011;4779;48.062;11.672;2023-08-20T05:58:19;5.00;;;4.00;;
9481;SDS011;4779;48.062;11.672;2023-08-20T06:00:46;4.03;;;3.70;;
9481;SDS011;4779;48.062;11.672;2023-08-20T06:03:13;6.75;;;4.18;;
9481;SDS011;4779;48.062;11.672;2023-08-20T06:05:42;4.75;;;3.92;;
9481;SDS011;4779;48.062;11.672;2023-08-20T06:08:09;5.72;;;4.05;;
9481;SDS011;4779;48.062;11.672;2023-08-20T06:10:36;5.95;;;3.75;;
9481;SDS011;4779;48.062;11.672;2023-08-20T06:13:03;4.35;;;3.80;;
9481;SDS011;4779;48.062;11.672;2023-08-20T06:15:30;6.68;;;4.28;;
9481;SDS011;4779;48.062;11.672;2023-08-20T06:17:57;6.28;;;3.92;;
9481;SDS011;4779;48.062;11.672;2023-08-20T06:20:24;5.95;;;4.55;;
9481;SDS011;4779;48.062;11.672;2023-08-20T06:22:52;4.28;;;3.85;;
9481;SDS011;4779;48.062;11.672;2023-08-20T06:25:19;7.18;;;3.70;;
9481;SDS011;4779;48.062;11.672;2023-08-20T06:27:46;6.55;;;4.22;;
9481;SDS011;4779;48.062;11.672;2023-08-20T06:30:13;5.25;;;3.92;;
9481;SDS011;4779;48.062;11.672;2023-08-20T06:32:41;5.40;;;3.95;;
9481;SDS011;4779;48.062;11.672;2023-08-20T06:35:08;4.60;;;3.72;;
9481;SDS011;4779;48.062;11.672;2023-08-20T06:37:36;4.35;;;3.50;;
9481;SDS011;4779;48.062;11.672;2023-08-20T06:40:07;5.20;;;3.80;;
9481;SDS011;4779;48.062;11.672;2023-08-20T06:42:34;6.43;;;3.70;;
9481;SDS011;4779;48.062;11.672;2023-08-20T06:45:01;4.53;;;3.88;;
9481;SDS011;4779;48.062;11.672;2023-08-20T06:47:29;4.82;;;3.97;;
9481;SDS011;4779;48.062;11.672;2023-08-20T06:49:56;8.60;;;4.32;;
9481;SDS011;4779;48.062;11.672;2023-08-20T06:52:22;5.65;;;3.90;;
9481;SDS011;4779;48.062;11.672;2023-08-20T06:54:49;5.68;;;3.80;;
9481;SDS011;4779;48.062;11.672;2023-08-20T06:57:18;4.80;;;3.67;;
9481;SDS011;4779;48.062;11.672;2023-08-20T06:59:45;5.95;;;3.95;;
9481;SDS011;4779;48.062;11.672;2023-08-20T07:02:12;6.13;;;4.20;;
9481;SDS011;4779;48.062;11.672;2023-08-20T07:04:39;5.32;;;3.75;;
9481;SDS011;4779;48.062;11.672;2023-08-20T07:07:09;5.78;;;3.72;;
9481;SDS011;4779;48.062;11.672;2023-08-20T07:09:36;4.78;;;3.55;;
9481;SDS011;4779;48.062;11.672;2023-08-20T07:12:04;5.22;;;3.55;;
9481;SDS011;4779;48.062;11.672;2023-08-20T07:14:33;6.07;;;3.58;;
9481;SDS011;4779;48.062;11.672;2023-08-20T07:17:00;5.00;;;3.65;;
9481;SDS011;4779;48.062;11.672;2023-08-20T07:19:27;5.05;;;4.10;;
9481;SDS011;4779;48.062;11.672;2023-08-20T07:21:55;4.10;;;3.42;;
9481;SDS011;4779;48.062;11.672;2023-08-20T07:24:22;4.70;;;3.20;;
9481;SDS011;4779;48.062;11.672;2023-08-20T07:26:50;6.40;;;3.65;;
9481;SDS011;4779;48.062;11.672;2023-08-20T07:29:17;6.82;;;3.50;;
9481;SDS011;4779;48.062;11.672;2023-08-20T07:31:45;4.07;;;3.22;;
9481;SDS011;4779;48.062;11.672;2023-08-20T07:34:12;4.68;;;3.55;;
9481;SDS011;4779;48.062;11.672;2023-08-20T07:36:39;6.75;;;3.97;;
9481;SDS011;4779;48.062;11.672;2023-08-20T07:39:06;5.80;;;3.60;;
9481;SDS011;4779;48.062;11.672;2023-08-20T07:41:34;5.95;;;3.88;;
9481;SDS011;4779;48.062;11.672;2023-08-20T07:44:01;4.40;;;3.40;;
9481;SDS011;4779;48.062;11.672;2023-08-20T07:46:28;5.13;;;3.85;;
9481;SDS011;4779;48.062;11.672;2023-08-20T07:48:57;6.97;;;3.45;;
9481;SDS011;4779;48.062;11.672;2023-08-20T07:51:24;4.72;;;3.10;;
9481;SDS011;4779;48.062;11.672;2023-08-20T07:53:51;4.30;;;3.42;;
9481;SDS011;4779;48.062;11.672;2023-08-20T07:56:18;5.03;;;3.45;;
9481;SDS011;4779;48.062;11.672;2023-08-20T07:58:45;6.22;;;3.78;;
9481;SDS011;4779;48.062;11.672;2023-08-20T08:01:12;4.80;;;3.28;;
9481;SDS011;4779;48.062;11.672;2023-08-20T08:03:39;6.53;;;3.60;;
9481;SDS011;4779;48.062;11.672;2023-08-20T08:06:08;5.63;;;3.35;;
9481;SDS011;4779;48.062;11.672;2023-08-20T08:08:35;5.47;;;3.67;;
9481;SDS011;4779;48.062;11.672;2023-08-20T08:11:02;5.50;;;3.53;;
9481;SDS011;4779;48.062;11.672;2023-08-20T08:13:29;5.85;;;3.63;;
9481;SDS011;4779;48.062;11.672;2023-08-20T08:15:56;8.70;;;3.72;;
9481;SDS011;4779;48.062;11.672;2023-08-20T08:18:23;5.28;;;3.92;;
9481;SDS011;4779;48.062;11.672;2023-08-20T08:20:50;4.10;;;3.70;;
9481;SDS011;4779;48.062;11.672;2023-08-20T08:23:18;5.38;;;3.53;;
9481;SDS011;4779;48.062;11.672;2023-08-20T08:25:45;6.72;;;4.25;;
9481;SDS011;4779;48.062;11.672;2023-08-20T08:28:12;4.28;;;3.42;;
9481;SDS011;4779;48.062;11.672;2023-08-20T08:30:39;5.22;;;3.85;;
9481;SDS011;4779;48.062;11.672;2023-08-20T08:33:06;9.00;;;4.28;;
9481;SDS011;4779;48.062;11.672;2023-08-20T08:35:33;6.30;;;4.10;;
9481;SDS011;4779;48.062;11.672;2023-08-20T08:38:00;5.82;;;3.97;;
9481;SDS011;4779;48.062;11.672;2023-08-20T08:40:30;6.68;;;4.13;;
9481;SDS011;4779;48.062;11.672;2023-08-20T08:42:57;5.70;;;3.95;;
9481;SDS011;4779;48.062;11.672;2023-08-20T08:45:25;7.63;;;4.00;;
9481;SDS011;4779;48.062;11.672;2023-08-20T08:47:53;4.63;;;3.85;;
9481;SDS011;4779;48.062;11.672;2023-08-20T08:50:21;4.65;;;3.47;;
9481;SDS011;4779;48.062;11.672;2023-08-20T08:52:48;5.55;;;3.47;;
9481;SDS011;4779;48.062;11.672;2023-08-20T08:55:18;5.72;;;3.90;;
9481;SDS011;4779;48.062;11.672;2023-08-20T08:57:47;3.95;;;3.10;;
9481;SDS011;4779;48.062;11.672;2023-08-20T09:00:14;4.82;;;3.70;;
9481;SDS011;4779;48.062;11.672;2023-08-20T09:02:42;4.05;;;3.65;;
9481;SDS011;4779;48.062;11.672;2023-08-20T09:05:09;4.25;;;3.53;;
9481;SDS011;4779;48.062;11.672;2023-08-20T09:07:37;7.28;;;3.42;;
9481;SDS011;4779;48.062;11.672;2023-08-20T09:10:08;4.22;;;3.35;;
9481;SDS011;4779;48.062;11.672;2023-08-20T09:12:35;4.07;;;3.00;;
9481;SDS011;4779;48.062;11.672;2023-08-20T09:15:09;5.65;;;3.28;;
9481;SDS011;4779;48.062;11.672;2023-08-20T09:17:36;3.92;;;3.30;;
9481;SDS011;4779;48.062;11.672;2023-08-20T09:20:04;4.78;;;3.25;;
9481;SDS011;4779;48.062;11.672;2023-08-20T09:22:32;3.92;;;2.90;;
9481;SDS011;4779;48.062;11.672;2023-08-20T09:25:00;3.88;;;3.17;;
9481;SDS011;4779;48.062;11.672;2023-08-20T09:27:28;4.32;;;3.00;;
9481;SDS011;4779;48.062;11.672;2023-08-20T09:29:55;3.28;;;2.97;;
9481;SDS011;4779;48.062;11.672;2023-08-20T09:32:25;4.65;;;3.40;;
9481;SDS011;4779;48.062;11.672;2023-08-20T09:34:54;4.65;;;3.20;;
9481;SDS011;4779;48.062;11.672;2023-08-20T09:37:23;5.68;;;3.25;;
9481;SDS011;4779;48.062;11.672;2023-08-20T09:39:51;3.88;;;3.10;;
9481;SDS011;4779;48.062;11.672;2023-08-20T09:42:18;3.58;;;3.22;;
9481;SDS011;4779;48.062;11.672;2023-08-20T09:44:45;5.25;;;2.90;;
9481;SDS011;4779;48.062;11.672;2023-08-20T09:47:14;3.60;;;2.85;;
9481;SDS011;4779;48.062;11.672;2023-08-20T09:49:45;3.05;;;2.75;;
9481;SDS011;4779;48.062;11.672;2023-08-20T09:52:15;3.35;;;3.05;;
9481;SDS011;4779;48.062;11.672;2023-08-20T09:54:49;3.30;;;3.00;;
9481;SDS011;4779;48.062;11.672;2023-08-20T09:57:32;2.92;;;2.70;;
9481;SDS011;4779;48.062;11.672;2023-08-20T10:00:01;3.85;;;3.05;;
9481;SDS011;4779;48.062;11.672;2023-08-20T10:02:30;3.28;;;3.08;;
9481;SDS011;4779;48.062;11.672;2023-08-20T10:05:00;3.65;;;3.30;;
9481;SDS011;4779;48.062;11.672;2023-08-20T10:07:28;3.63;;;3.30;;
9481;SDS011;4779;48.062;11.672;2023-08-20T10:09:57;4.82;;;3.28;;
9481;SDS011;4779;48.062;11.672;2023-08-20T10:12:26;4.18;;;3.47;;
9481;SDS011;4779;48.062;11.672;2023-08-20T10:14:53;3.72;;;3.38;;
9481;SDS011;4779;48.062;11.672;2023-08-20T10:17:22;3.60;;;3.22;;
9481;SDS011;4779;48.062;11.672;2023-08-20T10:19:50;3.58;;;3.28;;
9481;SDS011;4779;48.062;11.672;2023-08-20T10:22:20;3.58;;;3.20;;
9481;SDS011;4779;48.062;11.672;2023-08-20T10:24:47;4.68;;;3.17;;
9481;SDS011;4779;48.062;11.672;2023-08-20T10:27:23;4.57;;;3.40;;
9481;SDS011;4779;48.062;11.672;2023-08-20T10:29:52;3.70;;;3.13;;
9481;SDS011;4779;48.062;11.672;2023-08-20T10:32:20;4.50;;;3.10;;
9481;SDS011;4779;48.062;11.672;2023-08-20T10:35:07;4.95;;;3.55;;
9481;SDS011;4779;48.062;11.672;2023-08-20T10:37:36;3.97;;;3.10;;
9481;SDS011;4779;48.062;11.672;2023-08-20T10:40:05;4.35;;;3.13;;
9481;SDS011;4779;48.062;11.672;2023-08-20T10:42:34;3.97;;;3.28;;
9481;SDS011;4779;48.062;11.672;2023-08-20T10:45:08;4.18;;;3.15;;
9481;SDS011;4779;48.062;11.672;2023-08-20T10:47:37;3.60;;;2.80;;
9481;SDS011;4779;48.062;11.672;2023-08-20T10:50:08;5.57;;;3.33;;
9481;SDS011;4779;48.062;11.672;2023-08-20T10:52:39;3.72;;;2.92;;
9481;SDS011;4779;48.062;11.672;2023-08-20T10:55:07;3.97;;;2.72;;
9481;SDS011;4779;48.062;11.672;2023-08-20T10:57:35;4.70;;;2.85;;
9481;SDS011;4779;48.062;11.672;2023-08-20T11:00:03;3.72;;;3.40;;
9481;SDS011;4779;48.062;11.672;2023-08-20T11:02:36;5.28;;;2.95;;
9481;SDS011;4779;48.062;11.672;2023-08-20T11:05:03;3.15;;;2.85;;
9481;SDS011;4779;48.062;11.672;2023-08-20T11:07:43;4.65;;;2.90;;
9481;SDS011;4779;48.062;11.672;2023-08-20T11:10:13;4.45;;;3.00;;
9481;SDS011;4779;48.062;11.672;2023-08-20T11:12:41;5.25;;;2.95;;
9481;SDS011;4779;48.062;11.672;2023-08-20T11:15:09;4.57;;;3.03;;
9481;SDS011;4779;48.062;11.672;2023-08-20T11:17:40;4.88;;;3.10;;
9481;SDS011;4779;48.062;11.672;2023-08-20T11:20:09;6.03;;;3.38;;
9481;SDS011;4779;48.062;11.672;2023-08-20T11:22:39;4.10;;;2.97;;
9481;SDS011;4779;48.062;11.672;2023-08-20T11:25:11;3.92;;;2.97;;
9481;SDS011;4779;48.062;11.672;2023-08-20T11:27:42;6.95;;;3.08;;
9481;SDS011;4779;48.062;11.672;2023-08-20T11:30:10;3.88;;;3.00;;
9481;SDS011;4779;48.062;11.672;2023-08-20T11:32:38;3.90;;;2.72;;
9481;SDS011;4779;48.062;11.672;2023-08-20T11:35:05;3.85;;;3.03;;
9481;SDS011;4779;48.062;11.672;2023-08-20T11:37:33;5.20;;;3.03;;
9481;SDS011;4779;48.062;11.672;2023-08-20T11:40:00;4.45;;;2.92;;
9481;SDS011;4779;48.062;11.672;2023-08-20T11:42:29;3.60;;;2.95;;
9481;SDS011;4779;48.062;11.672;2023-08-20T11:44:56;3.42;;;2.97;;
9481;SDS011;4779;48.062;11.672;2023-08-20T11:47:23;4.35;;;2.75;;
9481;SDS011;4779;48.062;11.672;2023-08-20T11:50:01;4.03;;;2.60;;
9481;SDS011;4779;48.062;11.672;2023-08-20T11:52:30;3.97;;;3.17;;
9481;SDS011;4779;48.062;11.672;2023-08-20T11:54:58;4.72;;;2.92;;
9481;SDS011;4779;48.062;11.672;2023-08-20T11:57:26;4.13;;;2.90;;
9481;SDS011;4779;48.062;11.672;2023-08-20T11:59:59;3.53;;;2.85;;
9481;SDS011;4779;48.062;11.672;2023-08-20T12:02:29;4.65;;;3.10;;
9481;SDS011;4779;48.062;11.672;2023-08-20T12:04:56;4.00;;;2.90;;
9481;SDS011;4779;48.062;11.672;2023-08-20T12:07:25;4.43;;;2.65;;
9481;SDS011;4779;48.062;11.672;2023-08-20T12:09:52;4.68;;;2.85;;
9481;SDS011;4779;48.062;11.672;2023-08-20T12:12:20;4.13;;;2.75;;
9481;SDS011;4779;48.062;11.672;2023-08-20T12:14:49;6.22;;;3.17;;
9481;SDS011;4779;48.062;11.672;2023-08-20T12:17:16;4.82;;;2.78;;
9481;SDS011;4779;48.062;11.672;2023-08-20T12:19:44;4.85;;;3.33;;
9481;SDS011;4779;48.062;11.672;2023-08-20T12:22:11;4.88;;;2.90;;
9481;SDS011;4779;48.062;11.672;2023-08-20T12:24:38;4.65;;;2.88;;
9481;SDS011;4779;48.062;11.672;2023-08-20T12:27:05;3.22;;;2.65;;
9481;SDS011;4779;48.062;11.672;2023-08-20T12:29:32;4.30;;;2.85;;
9481;SDS011;4779;48.062;11.672;2023-08-20T12:32:01;3.30;;;3.00;;
9481;SDS011;4779;48.062;11.672;2023-08-20T12:34:32;5.57;;;3.08;;
9481;SDS011;4779;48.062;11.672;2023-08-20T12:36:59;3.85;;;2.60;;
9481;SDS011;4779;48.062;11.672;2023-08-20T12:39:27;6.05;;;2.90;;
9481;SDS011;4779;48.062;11.672;2023-08-20T12:41:54;3.15;;;2.85;;
9481;SDS011;4779;48.062;11.672;2023-08-20T12:44:21;6.50;;;3.10;;
9481;SDS011;4779;48.062;11.672;2023-08-20T12:46:48;3.50;;;3.13;;
9481;SDS011;4779;48.062;11.672;2023-08-20T12:49:18;5.32;;;3.38;;
9481;SDS011;4779;48.062;11.672;2023-08-20T12:51:45;4.03;;;2.97;;
9481;SDS011;4779;48.062;11.672;2023-08-20T12:54:12;4.47;;;3.13;;
9481;SDS011;4779;48.062;11.672;2023-08-20T12:56:39;4.10;;;3.00;;
9481;SDS011;4779;48.062;11.672;2023-08-20T12:59:06;3.40;;;3.03;;
9481;SDS011;4779;48.062;11.672;2023-08-20T13:01:33;4.20;;;3.00;;
9481;SDS011;4779;48.062;11.672;2023-08-20T13:04:00;5.07;;;3.40;;
9481;SDS011;4779;48.062;11.672;2023-08-20T13:06:30;3.50;;;3.17;;
9481;SDS011;4779;48.062;11.672;2023-08-20T13:08:57;4.60;;;3.22;;
9481;SDS011;4779;48.062;11.672;2023-08-20T13:11:25;2.70;;;2.50;;
9481;SDS011;4779;48.062;11.672;2023-08-20T13:13:53;4.35;;;2.92;;
9481;SDS011;4779;48.062;11.672;2023-08-20T13:16:20;4.93;;;3.28;;
9481;SDS011;4779;48.062;11.672;2023-08-20T13:18:48;3.05;;;2.72;;
9481;SDS011;4779;48.062;11.672;2023-08-20T13:21:15;4.78;;;3.00;;
9481;SDS011;4779;48.062;11.672;2023-08-20T13:23:44;3.40;;;3.10;;
9481;SDS011;4779;48.062;11.672;2023-08-20T13:26:11;3.40;;;2.97;;
9481;SDS011;4779;48.062;11.672;2023-08-20T13:28:38;4.10;;;3.20;;
9481;SDS011;4779;48.062;11.672;2023-08-20T13:31:05;4.63;;;3.30;;
9481;SDS011;4779;48.062;11.672;2023-08-20T13:33:32;4.95;;;3.28;;
9481;SDS011;4779;48.062;11.672;2023-08-20T13:35:59;7.78;;;3.22;;
9481;SDS011;4779;48.062;11.672;2023-08-20T13:38:27;4.25;;;3.38;;
9481;SDS011;4779;48.062;11.672;2023-08-20T13:40:55;4.28;;;3.10;;
9481;SDS011;4779;48.062;11.672;2023-08-20T13:43:23;3.40;;;3.10;;
9481;SDS011;4779;48.062;11.672;2023-08-20T13:45:50;4.70;;;3.15;;
9481;SDS011;4779;48.062;11.672;2023-08-20T13:48:17;4.57;;;3.50;;
9481;SDS011;4779;48.062;11.672;2023-08-20T13:50:44;3.58;;;2.92;;
9481;SDS011;4779;48.062;11.672;2023-08-20T13:53:11;4.15;;;2.90;;
9481;SDS011;4779;48.062;11.672;2023-08-20T13:55:38;3.97;;;3.10;;
9481;SDS011;4779;48.062;11.672;2023-08-20T13:58:07;4.20;;;3.35;;
9481;SDS011;4779;48.062;11.672;2023-08-20T14:00:34;5.78;;;3.33;;
9481;SDS011;4779;48.062;11.672;2023-08-20T14:03:01;4.63;;;3.00;;
9481;SDS011;4779;48.062;11.672;2023-08-20T14:05:28;4.70;;;3.50;;
9481;SDS011;4779;48.062;11.672;2023-08-20T14:07:55;3.42;;;3.13;;
9481;SDS011;4779;48.062;11.672;2023-08-20T14:10:23;4.53;;;3.40;;
9481;SDS011;4779;48.062;11.672;2023-08-20T14:12:50;3.72;;;2.90;;
9481;SDS011;4779;48.062;11.672;2023-08-20T14:15:18;5.60;;;3.40;;
9481;SDS011;4779;48.062;11.672;2023-08-20T14:17:45;3.53;;;3.15;;
9481;SDS011;4779;48.062;11.672;2023-08-20T14:20:12;3.83;;;3.25;;
9481;SDS011;4779;48.062;11.672;2023-08-20T14:22:39;3.15;;;2.85;;
9481;SDS011;4779;48.062;11.672;2023-08-20T14:25:06;4.70;;;3.50;;
9481;SDS011;4779;48.062;11.672;2023-08-20T14:27:34;4.60;;;3.25;;
9481;SDS011;4779;48.062;11.672;2023-08-20T14:30:01;3.70;;;3.30;;
9481;SDS011;4779;48.062;11.672;2023-08-20T14:32:31;4.85;;;2.90;;
9481;SDS011;4779;48.062;11.672;2023-08-20T14:34:58;3.33;;;3.03;;
9481;SDS011;4779;48.062;11.672;2023-08-20T14:37:25;4.50;;;3.28;;
9481;SDS011;4779;48.062;11.672;2023-08-20T14:39:52;4.07;;;3.10;;
9481;SDS011;4779;48.062;11.672;2023-08-20T14:42:19;4.07;;;3.25;;
9481;SDS011;4779;48.062;11.672;2023-08-20T14:44:46;3.58;;;3.13;;
9481;SDS011;4779;48.062;11.672;2023-08-20T14:47:13;4.32;;;3.00;;
9481;SDS011;4779;48.062;11.672;2023-08-20T14:49:42;4.35;;;3.03;;
9481;SDS011;4779;48.062;11.672;2023-08-20T14:52:11;3.78;;;3.13;;
9481;SDS011;4779;48.062;11.672;2023-08-20T14:54:38;3.72;;;3.10;;
9481;SDS011;4779;48.062;11.672;2023-08-20T14:57:06;3.67;;;3.38;;
9481;SDS011;4779;48.062;11.672;2023-08-20T14:59:33;3.88;;;3.10;;
9481;SDS011;4779;48.062;11.672;2023-08-20T15:02:01;3.20;;;3.00;;
9481;SDS011;4779;48.062;11.672;2023-08-20T15:04:28;3.70;;;3.20;;